Time;durP1;ratioP1;P1;durP2;ratioP2;P2;SDS_P1;SDS_P2;PMS_P1;PMS_P2;Temp;Humidity;BMP_temperature;BMP_pressure;BME280_temperature;BME280_humidity;BME280_pressure;Samples;Min_cycle;Max_cycle;Signal;HPM_P1;HPM_P2
2021/10/09 00:02:02;;;;;;;38.22;22.17;;;11.90;99.90;;;;;;5035099;28;20381;-79
2021/10/09 00:04:28;;;;;;;39.45;22.88;;;11.90;99.90;;;;;;5019186;28;20022;-79
2021/10/09 00:06:54;;;;;;;42.63;22.98;;;11.90;99.90;;;;;;5030074;28;20386;-79
2021/10/09 00:09:19;;;;;;;39.50;22.90;;;11.90;99.90;;;;;;5031420;28;20022;-79
2021/10/09 00:11:45;;;;;;;37.72;23.38;;;11.80;99.90;;;;;;5017771;28;20093;-79
2021/10/09 00:14:12;;;;;;;42.33;24.50;;;11.80;99.90;;;;;;5032570;28;20018;-79
2021/10/09 00:16:39;;;;;;;39.30;23.80;;;11.80;99.90;;;;;;5030981;28;20032;-77
2021/10/09 00:19:05;;;;;;;46.45;25.13;;;11.80;99.90;;;;;;5035560;28;20072;-77
2021/10/09 00:21:31;;;;;;;44.78;24.42;;;11.80;99.90;;;;;;5030465;28;20030;-77
2021/10/09 00:23:58;;;;;;;42.50;23.30;;;11.80;99.90;;;;;;5022778;28;20017;-77
2021/10/09 00:26:24;;;;;;;41.67;25.75;;;11.80;99.90;;;;;;5022711;28;20506;-77
2021/10/09 00:28:50;;;;;;;43.47;24.85;;;11.70;99.90;;;;;;5021972;28;20022;-78
2021/10/09 00:31:16;;;;;;;48.78;24.75;;;11.80;99.90;;;;;;5015538;28;20157;-79
2021/10/09 00:33:41;;;;;;;43.58;25.15;;;11.70;99.90;;;;;;5029198;28;20108;-79
2021/10/09 00:36:07;;;;;;;40.33;23.13;;;11.70;99.90;;;;;;5024331;28;20034;-79
2021/10/09 00:38:32;;;;;;;46.30;25.77;;;11.70;99.90;;;;;;5030258;28;20053;-79
2021/10/09 00:40:58;;;;;;;44.78;24.70;;;11.70;99.90;;;;;;5021129;28;20091;-76
2021/10/09 00:43:23;;;;;;;44.15;25.30;;;11.70;99.90;;;;;;5018417;28;20078;-77
2021/10/09 00:45:55;;;;;;;46.45;25.67;;;11.70;99.90;;;;;;5026256;28;20032;-77
2021/10/09 00:48:21;;;;;;;41.95;23.30;;;11.70;99.90;;;;;;5030839;28;20020;-77
2021/10/09 00:50:46;;;;;;;46.45;25.02;;;11.70;99.90;;;;;;5030400;28;20071;-77
2021/10/09 00:53:13;;;;;;;43.88;26.42;;;11.70;99.90;;;;;;5017290;28;20017;-77
2021/10/09 00:55:40;;;;;;;47.22;26.20;;;11.60;99.90;;;;;;5028375;28;20024;-77
2021/10/09 00:58:06;;;;;;;47.30;25.77;;;11.60;99.90;;;;;;5012845;28;20014;-77
2021/10/09 01:00:32;;;;;;;45.58;26.48;;;11.60;99.90;;;;;;5025216;28;20033;-77
2021/10/09 01:02:58;;;;;;;44.47;26.13;;;11.60;99.90;;;;;;5027656;28;20044;-79
2021/10/09 01:05:26;;;;;;;46.70;27.05;;;11.60;99.90;;;;;;5022951;28;20053;-79
2021/10/09 01:07:52;;;;;;;47.00;26.88;;;11.60;99.90;;;;;;5020678;28;20026;-79
2021/10/09 01:10:17;;;;;;;48.25;25.95;;;11.60;99.90;;;;;;5024706;28;20083;-79
2021/10/09 01:12:43;;;;;;;40.83;24.77;;;11.60;99.90;;;;;;5016884;28;20017;-79
2021/10/09 01:15:24;;;;;;;53.53;29.27;;;11.50;99.90;;;;;;5029192;28;20018;-79
2021/10/09 01:17:50;;;;;;;53.72;29.40;;;11.60;99.90;;;;;;5024195;28;20447;-79
2021/10/09 01:20:16;;;;;;;48.13;26.70;;;11.50;99.90;;;;;;5016715;28;20076;-77
2021/10/09 01:22:44;;;;;;;48.80;26.75;;;11.50;99.90;;;;;;5017709;28;20079;-77
2021/10/09 01:25:10;;;;;;;53.05;28.42;;;11.50;99.90;;;;;;5016632;28;20026;-79
2021/10/09 01:27:39;;;;;;;49.67;26.65;;;11.50;99.90;;;;;;5021311;28;20022;-79
2021/10/09 01:30:09;;;;;;;48.38;26.63;;;11.40;99.90;;;;;;5023764;28;20481;-79
2021/10/09 01:32:35;;;;;;;;;;;11.40;99.90;;;;;;5028259;28;20105;-79
2021/10/09 01:35:07;;;;;;;53.83;27.45;;;11.40;99.90;;;;;;5023594;28;20028;-79
2021/10/09 01:37:40;;;;;;;48.90;26.88;;;11.40;99.90;;;;;;5018464;28;20253;-79
2021/10/09 01:40:06;;;;;;;48.20;25.98;;;11.40;99.90;;;;;;5024154;28;20063;-79
2021/10/09 01:42:33;;;;;;;58.80;30.23;;;11.30;99.90;;;;;;5023935;28;20026;-78
2021/10/09 01:44:59;;;;;;;51.38;27.98;;;11.30;99.90;;;;;;5019728;28;20021;-79
2021/10/09 01:47:24;;;;;;;50.80;30.50;;;11.30;99.90;;;;;;5013744;28;20029;-79
2021/10/09 01:49:50;;;;;;;50.65;28.55;;;11.30;99.90;;;;;;5035263;28;20522;-79
2021/10/09 01:52:15;;;;;;;52.70;29.00;;;11.30;99.90;;;;;;5027685;28;20419;-77
2021/10/09 01:54:41;;;;;;;53.25;28.25;;;11.30;99.90;;;;;;5031981;28;20025;-77
2021/10/09 01:57:06;;;;;;;58.88;30.27;;;11.30;99.90;;;;;;5037200;28;20024;-77
2021/10/09 01:59:32;;;;;;;55.03;29.08;;;11.20;99.90;;;;;;5017390;28;20017;-76
2021/10/09 02:01:57;;;;;;;52.85;29.38;;;11.30;99.90;;;;;;5029518;28;20682;-77
2021/10/09 02:04:25;;;;;;;54.53;29.63;;;11.30;99.90;;;;;;5021221;28;20055;-77
2021/10/09 02:06:50;;;;;;;54.60;29.77;;;11.20;99.90;;;;;;5026880;28;20458;-77
2021/10/09 02:09:17;;;;;;;57.50;30.27;;;11.20;99.90;;;;;;5022390;28;20017;-77
2021/10/09 02:11:46;;;;;;;52.83;28.85;;;11.20;99.90;;;;;;5024801;28;20443;-77
2021/10/09 02:24:52;;;;;;;63.72;31.70;;;11.20;99.90;;;;;;5018356;28;20115;-79
2021/10/09 02:27:18;;;;;;;60.88;31.00;;;11.10;99.90;;;;;;5019205;28;20095;-79
2021/10/09 02:29:44;;;;;;;58.45;30.48;;;11.10;99.90;;;;;;5019587;28;20462;-79
2021/10/09 02:32:09;;;;;;;55.22;28.92;;;11.10;99.90;;;;;;5022087;28;20112;-79
2021/10/09 02:34:35;;;;;;;55.00;31.13;;;11.10;99.90;;;;;;5013843;28;20410;-79
2021/10/09 02:37:00;;;;;;;64.95;31.42;;;11.10;99.90;;;;;;5028408;28;20025;-79
2021/10/09 02:39:27;;;;;;;57.10;30.08;;;11.10;99.90;;;;;;5016646;28;20026;-79
2021/10/09 02:41:52;;;;;;;61.72;31.67;;;11.10;99.90;;;;;;5027382;28;20075;-79
2021/10/09 02:44:19;;;;;;;64.30;31.40;;;11.00;99.90;;;;;;5020844;28;20441;-79
2021/10/09 02:46:45;;;;;;;55.60;29.98;;;11.00;99.90;;;;;;5020380;28;20117;-79
2021/10/09 02:49:10;;;;;;;56.95;30.55;;;11.00;99.90;;;;;;5015100;28;20462;-79
2021/10/09 02:51:36;;;;;;;59.28;31.60;;;11.00;99.90;;;;;;5028666;28;20028;-79
2021/10/09 02:54:01;;;;;;;62.45;30.85;;;11.00;99.90;;;;;;5018844;28;20021;-79
2021/10/09 02:56:27;;;;;;;60.33;30.35;;;10.90;99.90;;;;;;5024728;28;20104;-79
2021/10/09 02:58:52;;;;;;;62.03;32.33;;;10.90;99.90;;;;;;5024441;28;20049;-79
2021/10/09 03:01:18;;;;;;;55.50;29.35;;;10.90;99.90;;;;;;5031817;28;20025;-79
2021/10/09 03:03:43;;;;;;;59.55;30.85;;;10.90;99.90;;;;;;5025913;28;20017;-78
2021/10/09 03:06:09;;;;;;;57.72;31.83;;;10.90;99.90;;;;;;5030452;28;20490;-79
2021/10/09 03:08:34;;;;;;;58.90;29.75;;;10.90;99.90;;;;;;5022333;28;20018;-79
2021/10/09 03:11:00;;;;;;;62.20;32.67;;;10.80;99.90;;;;;;5014519;28;20052;-79
2021/10/09 03:13:25;;;;;;;63.08;31.95;;;10.80;99.90;;;;;;5012962;28;20068;-79
2021/10/09 03:15:51;;;;;;;58.40;29.58;;;10.80;99.90;;;;;;5015860;28;20479;-78
2021/10/09 03:18:17;;;;;;;67.40;30.67;;;10.80;99.90;;;;;;5015496;28;20053;-79
2021/10/09 03:20:43;;;;;;;60.75;30.60;;;10.70;99.90;;;;;;5018572;28;20038;-78
2021/10/09 03:23:09;;;;;;;64.70;30.77;;;10.80;99.90;;;;;;5029406;28;20045;-78
2021/10/09 03:25:34;;;;;;;66.22;30.38;;;10.70;99.90;;;;;;5015896;28;20475;-79
2021/10/09 03:28:00;;;;;;;64.28;30.85;;;10.70;99.90;;;;;;5029275;28;20079;-78
2021/10/09 03:30:25;;;;;;;63.63;31.10;;;10.70;99.90;;;;;;5022183;28;20017;-79
2021/10/09 03:32:51;;;;;;;58.55;30.08;;;10.70;99.90;;;;;;5014142;28;20014;-79
2021/10/09 03:35:16;;;;;;;56.22;30.40;;;10.70;99.90;;;;;;5031237;28;20458;-79
2021/10/09 03:37:42;;;;;;;61.05;31.23;;;10.70;99.90;;;;;;5013494;28;20034;-78
2021/10/09 03:40:12;;;;;;;56.10;29.85;;;10.60;99.90;;;;;;5018168;28;20033;-79
2021/10/09 03:42:52;;;;;;;59.75;30.70;;;10.60;99.90;;;;;;5016043;28;20442;-79
2021/10/09 03:45:33;;;;;;;55.28;29.52;;;10.60;99.90;;;;;;5020345;28;20022;-79
2021/10/09 03:48:11;;;;;;;65.90;31.83;;;10.60;99.90;;;;;;5027920;28;20389;-79
2021/10/09 03:53:03;;;;;;;63.08;30.88;;;10.50;99.90;;;;;;5030451;28;20156;-78
2021/10/09 03:55:28;;;;;;;66.05;32.67;;;10.50;99.90;;;;;;5024868;28;20482;-78
2021/10/09 03:57:54;;;;;;;63.10;29.80;;;10.50;99.90;;;;;;5029232;28;20029;-79
2021/10/09 04:00:20;;;;;;;63.97;30.73;;;10.50;99.90;;;;;;5023779;28;20504;-79
2021/10/09 04:02:46;;;;;;;62.83;30.63;;;10.50;99.90;;;;;;5015436;28;20021;-79
2021/10/09 04:05:12;;;;;;;69.80;31.42;;;10.50;99.90;;;;;;5021620;28;20072;-79
2021/10/09 04:07:37;;;;;;;65.43;32.50;;;10.50;99.90;;;;;;5019714;28;20033;-78
2021/10/09 04:10:04;;;;;;;63.88;32.67;;;10.50;99.90;;;;;;5026546;28;20030;-79
2021/10/09 04:12:30;;;;;;;64.80;31.55;;;10.50;99.90;;;;;;5014346;28;20016;-77
2021/10/09 04:14:55;;;;;;;62.10;30.27;;;10.50;99.90;;;;;;5015498;28;20104;-77
2021/10/09 04:17:21;;;;;;;60.22;29.10;;;10.50;99.90;;;;;;5027530;28;20025;-79
2021/10/09 04:19:47;;;;;;;66.47;30.08;;;10.50;99.90;;;;;;5017528;28;20060;-79
2021/10/09 04:22:12;;;;;;;62.38;30.33;;;10.50;99.90;;;;;;5028663;28;20527;-79
2021/10/09 04:24:38;;;;;;;66.68;31.52;;;10.50;99.90;;;;;;5029105;28;20039;-79
2021/10/09 04:27:03;;;;;;;57.53;30.10;;;10.40;99.90;;;;;;5024869;28;20025;-79
2021/10/09 04:29:29;;;;;;;61.80;30.80;;;10.40;99.90;;;;;;5020136;28;20406;-79
2021/10/09 04:31:55;;;;;;;64.68;30.00;;;10.40;99.90;;;;;;5028606;28;20022;-78
2021/10/09 04:34:21;;;;;;;65.47;31.67;;;10.40;99.90;;;;;;5024727;28;20022;-79
2021/10/09 04:36:46;;;;;;;63.42;29.02;;;10.30;99.90;;;;;;5035886;28;20531;-79
2021/10/09 04:39:12;;;;;;;68.10;30.35;;;10.30;99.90;;;;;;5027540;28;20022;-79
2021/10/09 04:41:38;;;;;;;67.20;30.20;;;10.30;99.90;;;;;;5021540;28;20067;-79
2021/10/09 04:44:04;;;;;;;58.75;28.90;;;10.30;99.90;;;;;;5033032;28;20052;-79
2021/10/09 04:46:30;;;;;;;63.17;28.80;;;10.20;99.90;;;;;;5021683;28;20026;-79
2021/10/09 04:48:57;;;;;;;59.67;28.95;;;10.20;99.90;;;;;;5026052;28;20018;-79
2021/10/09 04:51:23;;;;;;;56.20;27.60;;;10.20;99.90;;;;;;5026613;28;20064;-79
2021/10/09 04:53:48;;;;;;;65.70;31.10;;;10.10;99.90;;;;;;5023071;28;20474;-79
2021/10/09 04:56:14;;;;;;;67.43;31.08;;;10.10;99.90;;;;;;5018303;28;20056;-79
2021/10/09 04:58:39;;;;;;;62.90;30.77;;;10.10;99.90;;;;;;5021217;28;20414;-79
2021/10/09 05:01:05;;;;;;;64.72;29.92;;;10.10;99.90;;;;;;5030278;28;20013;-79
2021/10/09 05:03:31;;;;;;;66.72;32.38;;;10.00;99.90;;;;;;5019271;28;20487;-79
2021/10/09 05:05:56;;;;;;;65.15;31.15;;;10.00;99.90;;;;;;5017571;28;20057;-79
2021/10/09 05:08:23;;;;;;;66.85;31.15;;;10.00;99.90;;;;;;5028623;28;20018;-79
2021/10/09 05:10:48;;;;;;;68.40;30.98;;;10.00;99.90;;;;;;5019666;28;20105;-79
2021/10/09 05:13:14;;;;;;;64.35;31.35;;;10.00;99.90;;;;;;5031646;28;20433;-79
2021/10/09 05:15:41;;;;;;;64.15;32.35;;;10.00;99.90;;;;;;5016549;28;20449;-79
2021/10/09 05:18:07;;;;;;;65.50;31.38;;;9.90;99.90;;;;;;5018938;28;20083;-79
2021/10/09 05:20:33;;;;;;;65.47;29.98;;;9.90;99.90;;;;;;5027091;28;20482;-79
2021/10/09 05:22:59;;;;;;;64.57;31.25;;;9.90;99.90;;;;;;5022338;28;20030;-78
2021/10/09 05:25:25;;;;;;;74.35;33.05;;;9.90;99.90;;;;;;5013514;28;20073;-79
2021/10/09 05:28:04;;;;;;;65.97;31.83;;;9.80;99.90;;;;;;5030515;28;20040;-79
2021/10/09 05:30:31;;;;;;;65.00;30.50;;;9.80;99.90;;;;;;5032167;28;20440;-79
2021/10/09 05:35:40;;;;;;;63.42;31.67;;;9.80;99.90;;;;;;5021549;28;20087;-79
2021/10/09 05:38:06;;;;;;;66.82;32.40;;;9.70;99.90;;;;;;5031508;28;20482;-79
2021/10/09 05:40:32;;;;;;;72.78;31.67;;;9.70;99.90;;;;;;5039110;28;20044;-79
2021/10/09 05:42:58;;;;;;;67.40;30.88;;;9.70;99.90;;;;;;5030487;28;20026;-79
2021/10/09 05:45:23;;;;;;;66.13;30.38;;;9.70;99.90;;;;;;5034458;28;20036;-79
2021/10/09 05:47:50;;;;;;;70.30;31.67;;;9.70;99.90;;;;;;5022491;28;20096;-79
2021/10/09 05:50:17;;;;;;;69.50;32.95;;;9.70;99.90;;;;;;5017520;28;20629;-79
2021/10/09 05:52:49;;;;;;;68.65;32.10;;;9.70;99.90;;;;;;5028689;28;20048;-79
2021/10/09 05:55:21;;;;;;;63.70;30.83;;;9.70;99.90;;;;;;5030205;28;20602;-79
2021/10/09 06:00:57;;;;;;;70.22;30.48;;;9.70;99.90;;;;;;5027261;28;20075;-79
2021/10/09 06:49:50;;;;;;;53.90;29.50;;;10.30;99.90;;;;;;5034096;28;20112;-79
2021/10/09 07:00:27;;;;;;;40.65;23.25;;;11.40;99.90;;;;;;5013587;28;20049;-79
2021/10/09 07:02:53;;;;;;;38.13;21.52;;;11.70;99.90;;;;;;5018467;28;20468;-79
2021/10/09 07:05:19;;;;;;;34.08;20.02;;;11.90;99.90;;;;;;5017865;28;20041;-79
2021/10/09 07:07:48;;;;;;;34.17;19.50;;;12.20;99.90;;;;;;5022704;28;20296;-79
2021/10/09 07:10:13;;;;;;;30.35;18.80;;;12.60;99.90;;;;;;5017701;28;20017;-79
2021/10/09 07:12:39;;;;;;;30.38;18.17;;;12.90;99.90;;;;;;5021074;28;20386;-79
2021/10/09 07:15:07;;;;;;;35.22;18.73;;;13.30;99.90;;;;;;5030007;28;20083;-79
2021/10/09 07:17:32;;;;;;;31.45;19.63;;;13.50;99.90;;;;;;5019407;28;20415;-79
2021/10/09 07:19:58;;;;;;;30.38;18.65;;;13.70;99.90;;;;;;5021261;28;20030;-78
2021/10/09 07:22:24;;;;;;;29.98;17.63;;;13.90;99.90;;;;;;5025557;28;20397;-79
2021/10/09 07:24:50;;;;;;;26.80;16.05;;;14.20;99.90;;;;;;5018510;28;20018;-79
2021/10/09 07:27:16;;;;;;;27.77;17.30;;;14.40;99.90;;;;;;5013566;28;20080;-79
2021/10/09 07:29:41;;;;;;;27.52;18.42;;;14.70;99.90;;;;;;5027132;28;20025;-79
2021/10/09 07:32:07;;;;;;;26.50;16.52;;;14.90;99.90;;;;;;5019291;28;20053;-79
2021/10/09 07:34:33;;;;;;;28.77;17.95;;;15.10;99.90;;;;;;5017413;28;20105;-76
2021/10/09 07:36:58;;;;;;;30.30;17.38;;;15.40;99.90;;;;;;5013037;28;20490;-76
2021/10/09 07:39:25;;;;;;;27.25;17.15;;;15.50;99.90;;;;;;5016547;28;20026;-78
2021/10/09 07:41:52;;;;;;;27.30;18.90;;;15.70;99.90;;;;;;5017576;28;20024;-78
2021/10/09 07:44:21;;;;;;;30.55;18.20;;;16.00;99.90;;;;;;5017254;28;20117;-76
2021/10/09 07:46:46;;;;;;;26.98;18.58;;;16.40;99.40;;;;;;5032643;28;20052;-76
2021/10/09 07:49:12;;;;;;;30.55;17.88;;;16.70;98.90;;;;;;5037152;28;20527;-76
2021/10/09 07:51:37;;;;;;;28.13;18.73;;;17.00;97.80;;;;;;5030728;28;20044;-76
2021/10/09 07:54:04;;;;;;;34.63;19.08;;;17.20;97.40;;;;;;5032721;28;20491;-76
2021/10/09 07:56:30;;;;;;;28.95;18.45;;;17.40;97.00;;;;;;5036941;28;20670;-76
2021/10/09 07:58:55;;;;;;;25.80;17.15;;;17.70;96.70;;;;;;5039548;28;20033;-76
2021/10/09 08:01:21;;;;;;;30.45;18.30;;;18.00;96.30;;;;;;5032064;28;20025;-76
2021/10/09 08:03:47;;;;;;;30.70;19.05;;;18.20;95.70;;;;;;5034670;28;20038;-76
2021/10/09 08:06:13;;;;;;;29.30;18.50;;;18.40;95.00;;;;;;5031894;28;20053;-76
2021/10/09 08:08:38;;;;;;;28.60;17.75;;;18.60;94.40;;;;;;5034261;28;20029;-76
2021/10/09 08:11:04;;;;;;;33.50;19.13;;;18.80;93.80;;;;;;5035694;28;20018;-76
2021/10/09 08:13:30;;;;;;;26.08;18.05;;;18.90;93.50;;;;;;5038464;28;20025;-76
2021/10/09 08:15:56;;;;;;;29.73;18.05;;;19.00;93.30;;;;;;5032569;28;20016;-76
2021/10/09 08:18:22;;;;;;;27.35;18.52;;;19.20;93.10;;;;;;5040811;28;20029;-76
2021/10/09 08:20:50;;;;;;;29.60;19.45;;;19.40;92.70;;;;;;5036058;28;20029;-76
2021/10/09 08:23:22;;;;;;;24.60;18.27;;;19.50;92.60;;;;;;5042436;28;20466;-77
2021/10/09 08:36:53;;;;;;;29.52;18.88;;;20.50;90.60;;;;;;5042717;28;20041;-77
2021/10/09 08:39:19;;;;;;;27.65;19.17;;;20.60;90.20;;;;;;5041610;28;20021;-77
2021/10/09 08:41:45;;;;;;;31.77;18.92;;;20.70;90.30;;;;;;5034063;28;20025;-76
2021/10/09 08:44:11;;;;;;;27.80;19.40;;;20.90;89.60;;;;;;5038126;28;20043;-76
2021/10/09 08:46:36;;;;;;;32.97;19.15;;;21.00;88.80;;;;;;5034393;28;20036;-76
2021/10/09 08:49:02;;;;;;;31.42;20.70;;;21.10;89.00;;;;;;5038922;28;20029;-76
2021/10/09 08:51:28;;;;;;;30.23;20.10;;;21.30;87.40;;;;;;5037011;28;20017;-76
2021/10/09 08:54:03;;;;;;;35.97;20.25;;;21.50;86.20;;;;;;5029392;28;20025;-76
2021/10/09 08:56:32;;;;;;;30.55;19.98;;;21.50;86.00;;;;;;5026186;28;20018;-76
2021/10/09 08:59:27;;;;;;;30.10;20.40;;;21.60;85.00;;;;;;5025713;28;20060;-76
2021/10/09 09:02:08;;;;;;;26.30;18.27;;;21.60;85.00;;;;;;5033349;28;20267;-76
2021/10/09 09:07:24;;;;;;;30.05;19.60;;;22.10;84.00;;;;;;5036009;28;20068;-76
2021/10/09 09:26:48;;;;;;;28.63;20.67;;;22.00;82.00;;;;;;5029477;28;20117;-76
2021/10/09 09:40:08;;;;;;;28.85;18.05;;;22.90;79.60;;;;;;5041941;28;20034;-76
2021/10/09 09:42:41;;;;;;;;;;;23.00;78.40;;;;;;5036778;28;20021;-76
2021/10/09 09:45:10;;;;;;;29.85;19.05;;;22.90;77.30;;;;;;5040465;28;20390;-76
2021/10/09 09:47:41;;;;;;;32.00;19.13;;;22.70;78.10;;;;;;5038348;28;20465;-77
2021/10/09 09:50:11;;;;;;;27.73;18.40;;;22.90;77.40;;;;;;5031502;28;20049;-76
2021/10/09 09:52:38;;;;;;;26.15;17.20;;;23.10;78.10;;;;;;5034087;28;20025;-76
2021/10/09 09:55:06;;;;;;;27.95;18.25;;;23.30;77.80;;;;;;5032884;28;20017;-76
2021/10/09 09:57:34;;;;;;;28.98;19.38;;;23.40;77.30;;;;;;5033964;28;20499;-76
2021/10/09 10:00:01;;;;;;;31.70;20.02;;;23.60;76.90;;;;;;5032311;28;20056;-75
2021/10/09 10:02:29;;;;;;;31.27;20.10;;;23.50;77.60;;;;;;5033557;28;20449;-75
2021/10/09 10:05:00;;;;;;;29.38;19.55;;;23.70;78.00;;;;;;5032736;28;20033;-75
2021/10/09 10:07:26;;;;;;;31.55;19.83;;;23.80;76.60;;;;;;5026363;28;20045;-75
2021/10/09 10:09:52;;;;;;;30.40;19.25;;;23.70;76.70;;;;;;5035371;28;20048;-75
2021/10/09 10:12:18;;;;;;;30.55;20.15;;;23.60;76.60;;;;;;5033969;28;20467;-75
2021/10/09 10:14:46;;;;;;;28.83;18.83;;;23.20;76.10;;;;;;5035181;28;20029;-75
2021/10/09 10:17:11;;;;;;;32.35;19.02;;;23.20;76.60;;;;;;5038917;28;20064;-75
2021/10/09 10:19:49;;;;;;;31.27;19.58;;;23.30;77.30;;;;;;5033697;28;20029;-75
2021/10/09 10:22:15;;;;;;;29.23;19.48;;;23.60;76.90;;;;;;5028650;28;20029;-76
2021/10/09 10:24:44;;;;;;;28.20;19.23;;;23.50;77.00;;;;;;5034096;28;20641;-75
2021/10/09 10:27:32;;;;;;;33.55;19.83;;;23.60;76.50;;;;;;5031386;28;20067;-75
2021/10/09 10:30:16;;;;;;;28.27;19.88;;;23.50;75.50;;;;;;5033485;28;20029;-75
2021/10/09 10:33:03;;;;;;;26.75;19.10;;;23.20;76.80;;;;;;5036754;28;20531;-75
2021/10/09 10:35:31;;;;;;;29.73;20.95;;;23.00;77.60;;;;;;5027179;28;20021;-75
2021/10/09 10:38:01;;;;;;;30.65;21.02;;;22.90;77.40;;;;;;5026028;28;20050;-76
2021/10/09 10:40:49;;;;;;;34.20;19.52;;;22.80;77.40;;;;;;5021608;28;20103;-76
2021/10/09 10:46:55;;;;;;;28.77;18.73;;;22.30;79.00;;;;;;5028765;28;20029;-76
2021/10/09 10:49:43;;;;;;;30.17;19.73;;;22.20;79.10;;;;;;5037350;28;20022;-76
2021/10/09 10:52:12;;;;;;;31.65;19.50;;;22.40;79.40;;;;;;5038963;28;20411;-74
2021/10/09 10:55:02;;;;;;;30.20;19.83;;;22.50;78.70;;;;;;5039310;28;20028;-74
2021/10/09 10:57:28;;;;;;;29.70;17.92;;;22.70;78.30;;;;;;5037369;28;20048;-76
2021/10/09 10:59:57;;;;;;;37.92;20.58;;;22.80;78.30;;;;;;5029766;28;20057;-74
2021/10/09 11:02:36;;;;;;;36.33;20.50;;;22.90;77.50;;;;;;5034464;28;20479;-74
2021/10/09 11:05:04;;;;;;;29.98;19.50;;;22.80;77.10;;;;;;5036080;28;20060;-74
2021/10/09 11:07:33;;;;;;;34.07;20.87;;;22.80;78.20;;;;;;5039876;28;20025;-75
2021/10/09 11:10:16;;;;;;;34.47;20.05;;;22.90;76.50;;;;;;5034323;28;20780;-75
2021/10/09 11:12:44;;;;;;;32.45;20.27;;;22.80;77.00;;;;;;5028497;28;20113;-75
2021/10/09 11:15:19;;;;;;;33.28;20.75;;;22.70;76.80;;;;;;5031018;28;20091;-75
2021/10/09 11:17:48;;;;;;;31.05;21.35;;;22.50;77.40;;;;;;5034247;28;20483;-75
2021/10/09 11:20:25;;;;;;;32.70;20.92;;;22.40;78.20;;;;;;5031757;28;20025;-75
2021/10/09 11:22:53;;;;;;;33.83;20.48;;;22.30;78.90;;;;;;5031000;28;20048;-75
2021/10/09 11:25:25;;;;;;;32.00;20.27;;;22.30;78.60;;;;;;5034777;28;20055;-75
2021/10/09 11:27:51;;;;;;;31.88;20.73;;;22.30;79.40;;;;;;5035794;28;20107;-75
2021/10/09 11:30:17;;;;;;;37.42;20.50;;;22.20;79.00;;;;;;5038129;28;20374;-75
2021/10/09 11:32:44;;;;;;;32.65;21.58;;;22.10;79.00;;;;;;5032409;28;20037;-75
2021/10/09 11:35:12;;;;;;;29.88;20.08;;;22.00;79.30;;;;;;5029946;28;20414;-75
2021/10/09 11:37:46;;;;;;;32.88;19.98;;;21.90;79.80;;;;;;5034824;28;20418;-75
2021/10/09 11:40:12;;;;;;;33.17;21.02;;;21.80;80.30;;;;;;5029973;28;20021;-74
2021/10/09 11:42:52;;;;;;;30.55;20.65;;;22.00;80.50;;;;;;5033178;28;20029;-75
2021/10/09 11:56:05;;;;;;;30.52;20.98;;;21.70;81.20;;;;;;5010996;28;20087;-75
2021/10/09 11:58:31;;;;;;;32.33;20.42;;;21.70;81.00;;;;;;5023045;28;20017;-75
2021/10/09 12:00:57;;;;;;;34.05;21.75;;;21.80;81.30;;;;;;5036415;28;20589;-75
2021/10/09 12:03:35;;;;;;;37.17;22.38;;;21.70;80.90;;;;;;5039103;28;20017;-74
2021/10/09 12:06:10;;;;;;;32.42;21.35;;;21.60;81.40;;;;;;5033632;28;20075;-75
2021/10/09 12:08:50;;;;;;;32.10;21.23;;;21.60;82.50;;;;;;5032817;28;20498;-75
2021/10/09 12:11:29;;;;;;;34.05;20.83;;;21.80;81.30;;;;;;5017703;28;20018;-75
2021/10/09 12:13:58;;;;;;;30.27;20.63;;;21.90;79.60;;;;;;5024755;28;20418;-75
2021/10/09 12:16:37;;;;;;;37.53;21.95;;;21.80;79.30;;;;;;5018168;28;20018;-75
2021/10/09 12:19:07;;;;;;;32.78;20.13;;;21.90;79.20;;;;;;5022374;28;20022;-75
2021/10/09 12:21:38;;;;;;;30.10;20.42;;;22.00;79.80;;;;;;5025306;28;20017;-75
2021/10/09 12:24:24;;;;;;;35.70;19.98;;;22.00;79.80;;;;;;5021144;28;20018;-75
2021/10/09 12:27:13;;;;;;;36.33;20.50;;;22.20;79.80;;;;;;5017492;28;20018;-75
2021/10/09 12:30:00;;;;;;;36.22;21.15;;;22.40;78.20;;;;;;5028474;28;20053;-75
2021/10/09 12:32:27;;;;;;;32.10;20.40;;;22.40;78.80;;;;;;5013423;28;20046;-75
2021/10/09 12:35:15;;;;;;;34.85;21.88;;;22.40;78.50;;;;;;5023482;28;20028;-75
2021/10/09 12:37:54;;;;;;;34.40;19.80;;;22.50;78.00;;;;;;5027193;28;20025;-75
2021/10/09 12:40:20;;;;;;;36.53;21.47;;;22.40;77.60;;;;;;5026487;28;20021;-75
2021/10/09 12:42:47;;;;;;;31.05;19.45;;;22.30;78.00;;;;;;5017553;28;20037;-76
2021/10/09 12:45:13;;;;;;;28.95;19.45;;;22.20;78.50;;;;;;5018261;28;20105;-75
2021/10/09 12:47:38;;;;;;;31.23;20.23;;;22.20;78.90;;;;;;5014805;28;20105;-74
2021/10/09 12:50:04;;;;;;;35.17;21.27;;;22.20;78.20;;;;;;5019125;28;20113;-75
2021/10/09 12:52:30;;;;;;;35.05;22.15;;;22.00;78.30;;;;;;5027924;28;20172;-75
2021/10/09 12:54:56;;;;;;;40.28;20.50;;;21.90;79.50;;;;;;5039871;28;20112;-75
2021/10/09 12:57:21;;;;;;;31.38;21.15;;;21.80;78.80;;;;;;5039137;28;20033;-75
2021/10/09 12:59:47;;;;;;;32.95;20.95;;;21.70;79.80;;;;;;5040244;28;20029;-75
2021/10/09 13:02:13;;;;;;;32.95;20.73;;;21.70;80.20;;;;;;5039422;28;20402;-75
2021/10/09 13:04:39;;;;;;;30.33;20.65;;;21.80;80.10;;;;;;5033800;28;20079;-76
2021/10/09 13:07:04;;;;;;;33.47;21.45;;;21.90;79.50;;;;;;5037408;28;20055;-74
2021/10/09 13:09:30;;;;;;;34.25;21.38;;;21.80;79.80;;;;;;5038676;28;20110;-76
2021/10/09 13:11:58;;;;;;;30.20;19.73;;;21.80;80.00;;;;;;5037362;28;20017;-75
2021/10/09 13:14:24;;;;;;;29.80;19.67;;;21.80;80.00;;;;;;5036854;28;20014;-75
2021/10/09 13:16:50;;;;;;;28.90;18.88;;;21.90;79.50;;;;;;5041111;28;20028;-75
2021/10/09 13:19:15;;;;;;;31.13;20.55;;;21.90;79.20;;;;;;5035635;28;20048;-75
2021/10/09 13:21:41;;;;;;;29.60;19.77;;;21.90;79.20;;;;;;5037052;28;20577;-75
2021/10/09 13:24:07;;;;;;;30.50;19.77;;;22.00;79.10;;;;;;5035154;28;20148;-76
2021/10/09 13:26:33;;;;;;;34.70;19.77;;;22.00;79.00;;;;;;5035190;28;20048;-76
2021/10/09 13:29:00;;;;;;;33.35;18.60;;;22.10;79.10;;;;;;5039903;28;20024;-76
2021/10/09 13:31:26;;;;;;;30.38;19.85;;;22.10;78.70;;;;;;5036527;28;20055;-75
2021/10/09 13:33:52;;;;;;;28.85;19.02;;;22.10;78.20;;;;;;5035131;28;20029;-74
2021/10/09 13:36:18;;;;;;;28.15;17.35;;;21.90;78.50;;;;;;5022255;28;20025;-74
2021/10/09 13:38:44;;;;;;;29.33;18.92;;;21.90;79.20;;;;;;5028676;28;20032;-75
2021/10/09 13:41:11;;;;;;;27.95;18.42;;;21.90;78.80;;;;;;5032919;28;20009;-75
2021/10/09 13:43:36;;;;;;;28.77;19.50;;;22.00;79.30;;;;;;5034182;28;20075;-75
2021/10/09 13:46:02;;;;;;;32.55;19.27;;;22.00;78.60;;;;;;5027911;28;20334;-75
2021/10/09 13:48:27;;;;;;;31.17;19.10;;;22.00;78.50;;;;;;5016960;28;20112;-75
2021/10/09 13:50:53;;;;;;;30.52;18.58;;;21.90;78.20;;;;;;5024406;28;20045;-75
2021/10/09 13:53:19;;;;;;;35.95;20.23;;;21.80;78.50;;;;;;5029630;28;20029;-75
2021/10/09 13:55:46;;;;;;;30.30;18.63;;;21.60;78.40;;;;;;5036177;28;20052;-75
2021/10/09 13:58:12;;;;;;;29.23;18.60;;;21.50;78.70;;;;;;5019315;28;20075;-78
2021/10/09 14:00:39;;;;;;;28.60;18.40;;;21.30;79.30;;;;;;5018130;28;20029;-76
2021/10/09 14:03:05;;;;;;;30.92;18.40;;;21.20;78.60;;;;;;5014033;28;20053;-75
2021/10/09 14:05:31;;;;;;;30.80;20.30;;;21.00;80.00;;;;;;5027893;28;20029;-75
2021/10/09 14:07:57;;;;;;;32.90;20.55;;;21.10;80.60;;;;;;5022273;28;20487;-76
2021/10/09 14:10:23;;;;;;;35.50;21.80;;;21.00;81.40;;;;;;5013815;28;20022;-75
2021/10/09 14:12:48;;;;;;;37.08;22.27;;;20.90;81.40;;;;;;5024159;28;20032;-76
2021/10/09 14:15:15;;;;;;;33.88;21.33;;;20.70;81.80;;;;;;5016537;28;20018;-75
2021/10/09 14:17:40;;;;;;;36.22;22.88;;;20.60;82.70;;;;;;5031198;28;20041;-75
2021/10/09 14:20:08;;;;;;;33.00;19.25;;;20.30;82.70;;;;;;5018916;28;20475;-75
2021/10/09 14:22:34;;;;;;;33.10;20.38;;;20.20;83.40;;;;;;5027405;28;20035;-75
2021/10/09 14:25:01;;;;;;;33.67;20.27;;;20.20;83.50;;;;;;5032895;28;20025;-76
2021/10/09 14:27:28;;;;;;;31.27;20.40;;;20.00;83.80;;;;;;5028481;28;20025;-75
2021/10/09 14:29:54;;;;;;;34.40;20.60;;;19.80;84.20;;;;;;5035325;28;20022;-75
2021/10/09 14:32:20;;;;;;;33.35;21.73;;;19.80;85.10;;;;;;5026726;28;20163;-75
2021/10/09 14:34:45;;;;;;;37.97;21.73;;;19.80;85.20;;;;;;5021341;28;20101;-75
2021/10/09 14:37:11;;;;;;;36.72;21.15;;;19.70;85.30;;;;;;5029974;28;20026;-75
2021/10/09 14:39:36;;;;;;;30.33;18.50;;;19.50;85.10;;;;;;5018045;28;20034;-76
2021/10/09 14:42:03;;;;;;;39.95;21.63;;;19.50;85.40;;;;;;5025198;28;20047;-76